Luminous Kobe-2 — JJ3868 — position and weather

sailwx.info

Track history (hours):
 
Tides and Currents Weather Stations Pressure Air Temp Water Temp Dewpoint Dewpoint Depression Visibility Wind Speed Wind Dir Waves Ship Positions

Luminous Kobe-2

Last reported at 2018-Feb-24 06:00 UTC. Time now 2018-Feb-24 06:16 UTC.
Position N 34°41' E 135°11'.

Length 105 m; draft 4.4 m.

Type: Passenger vessel. MMSI: 431000469.

Date/timePositionNaut miles runAvg speedWind from/ knotsBaromVisibWave heightAir tempDewpointWater temp
2018-Feb-24 06:00N 34°41' E 135°11'0 0.0
2018-Feb-24 05:30N 34°41' E 135°11'0 0.0
2018-Feb-24 05:00N 34°41' E 135°11'3 5.2
2018-Feb-24 04:30N 34°38' E 135°10'3 6.3
2018-Feb-24 04:00N 34°37' E 135°07'4 8.7
2018-Feb-24 03:30N 34°38' E 135°12'3 6.7
2018-Feb-24 03:01N 34°41' E 135°11'0 0.0
2018-Feb-24 02:30N 34°41' E 135°11'0 0.0
2018-Feb-24 02:00N 34°41' E 135°11'0 0.0
2018-Feb-24 01:30N 34°41' E 135°11'0 0.0
2018-Feb-24 01:00N 34°41' E 135°11'0 0.0
2018-Feb-24 00:30N 34°41' E 135°11'0 0.0
2018-Feb-24 00:00N 34°41' E 135°11'0 0.0
2018-Feb-23 23:30N 34°41' E 135°11'0 0.0
2018-Feb-23 23:00N 34°41' E 135°11'0 0.0
2018-Feb-23 22:30N 34°41' E 135°11'0 0.0
2018-Feb-23 21:57N 34°41' E 135°11'0 0.0
2018-Feb-23 21:30N 34°41' E 135°11'0 0.0
2018-Feb-23 21:00N 34°41' E 135°11'0 0.0
2018-Feb-23 20:30N 34°41' E 135°11'0 0.0
2018-Feb-23 20:00N 34°41' E 135°11'0 0.0
2018-Feb-23 19:30N 34°41' E 135°11'0 0.0
2018-Feb-23 19:00N 34°41' E 135°11'0 0.0
2018-Feb-23 18:30N 34°41' E 135°11'0 0.0
2018-Feb-23 18:00N 34°41' E 135°11'0 0.0
2018-Feb-23 17:30N 34°41' E 135°11'0 0.0
2018-Feb-23 17:00N 34°41' E 135°11'0 0.0
2018-Feb-23 16:30N 34°41' E 135°11'0 0.0
2018-Feb-23 16:00N 34°41' E 135°11'0 0.0
2018-Feb-23 15:30N 34°41' E 135°11'0 0.0
2018-Feb-23 15:00N 34°41' E 135°11'0 0.0
2018-Feb-23 14:30N 34°41' E 135°11'0 0.0
2018-Feb-23 14:00N 34°41' E 135°11'0 0.0
2018-Feb-23 13:30N 34°41' E 135°11'0 0.0
2018-Feb-23 13:00N 34°41' E 135°11'0 0.0
2018-Feb-23 12:30N 34°41' E 135°11'2 3.2
2018-Feb-23 12:00N 34°39' E 135°11'714.4
2018-Feb-23 11:31N 34°35' E 135°05'4 8.3
2018-Feb-23 11:01N 34°37' E 135°01'612.1
2018-Feb-23 10:31N 34°37' E 135°09'4 8.2
2018-Feb-23 10:01N 34°41' E 135°11'0 0.0
2018-Feb-23 09:29N 34°41' E 135°11'1 2.0
2018-Feb-23 09:00N 34°40' E 135°12'4 8.8
2018-Feb-23 08:31N 34°37' E 135°07'5 9.6
2018-Feb-23 08:00N 34°41' E 135°11'0 0.0
2018-Feb-23 07:28N 34°41' E 135°11'0 0.0
2018-Feb-23 06:58N 34°41' E 135°11'0 0.0
2018-Feb-23 06:28N 34°41' E 135°11'0 0.0
2018-Feb-23 05:58N 34°41' E 135°11'0 0.0
2018-Feb-23 05:28N 34°41' E 135°11'0 0.0
2018-Feb-23 05:00N 34°41' E 135°11'3 5.3
2018-Feb-23 04:30N 34°38' E 135°10'2 3.6
2018-Feb-23 04:00N 34°37' E 135°09'3 6.7
2018-Feb-23 03:30N 34°37' E 135°13'4 7.7
2018-Feb-23 03:00N 34°41' E 135°11'0 0.0
2018-Feb-23 02:29N 34°41' E 135°11'0 0.0
2018-Feb-23 01:59N 34°41' E 135°11'0 0.0
2018-Feb-23 01:29N 34°41' E 135°11'0 0.0
2018-Feb-23 00:59N 34°41' E 135°11'0 0.0
2018-Feb-23 00:29N 34°41' E 135°11'0 0.0
2018-Feb-22 23:59N 34°41' E 135°11'0 0.0
2018-Feb-22 23:29N 34°41' E 135°11'0 0.0
2018-Feb-22 22:59N 34°41' E 135°11'0 0.0
2018-Feb-22 22:29N 34°41' E 135°11'0 0.0
2018-Feb-22 21:59N 34°41' E 135°11'0 0.0
2018-Feb-22 21:26N 34°41' E 135°11'0 0.0
2018-Feb-22 20:59N 34°41' E 135°11'0 0.0
2018-Feb-22 20:29N 34°41' E 135°11'0 0.0
2018-Feb-22 19:59N 34°41' E 135°11'0 0.0
2018-Feb-22 19:29N 34°41' E 135°11'0 0.0
2018-Feb-22 18:59N 34°41' E 135°11'0 0.0
2018-Feb-22 18:29N 34°41' E 135°11'0 0.0
2018-Feb-22 17:59N 34°41' E 135°11'0 0.0
2018-Feb-22 17:29N 34°41' E 135°11'0 0.0
2018-Feb-22 16:59N 34°41' E 135°11'0 0.0
2018-Feb-22 16:29N 34°41' E 135°11'0 0.0
2018-Feb-22 15:59N 34°41' E 135°11'0 0.0
2018-Feb-22 15:29N 34°41' E 135°11'0 0.0
2018-Feb-22 14:59N 34°41' E 135°11'0 0.0
2018-Feb-22 14:29N 34°41' E 135°11'0 0.0
2018-Feb-22 13:59N 34°41' E 135°11'0 0.0
2018-Feb-22 13:29N 34°41' E 135°11'0 0.0
2018-Feb-22 12:59N 34°41' E 135°11'0 0.0
2018-Feb-22 12:29N 34°41' E 135°11'1 2.7
2018-Feb-22 12:00N 34°40' E 135°11'611.5
2018-Feb-22 11:30N 34°36' E 135°06'612.4
2018-Feb-22 11:00N 34°38' E 134°59'613.0
2018-Feb-22 10:30N 34°37' E 135°07'510.3
2018-Feb-22 10:00N 34°41' E 135°11'0 0.0
2018-Feb-22 09:30N 34°41' E 135°11'1 2.0
2018-Feb-22 09:00N 34°40' E 135°12'4 8.9
2018-Feb-22 08:30N 34°37' E 135°07'5 9.7
2018-Feb-22 08:00N 34°41' E 135°11'0 0.0
2018-Feb-22 07:30N 34°41' E 135°11'0 0.0
2018-Feb-22 07:00N 34°41' E 135°11'0 0.0
2018-Feb-22 06:30N 34°41' E 135°11'0 0.0
2018-Feb-22 06:00N 34°41' E 135°11'0 0.0
2018-Feb-22 05:30N 34°41' E 135°11'0 0.0
2018-Feb-22 05:00N 34°41' E 135°11'3 5.7
2018-Feb-22 04:31N 34°38' E 135°10'3 6.8
2018-Feb-22 04:01N 34°37' E 135°06'510.7
2018-Feb-22 03:30N 34°38' E 135°13'3 7.0
2018-Feb-22 03:00N 34°41' E 135°11'0 0.0
2018-Feb-22 02:30N 34°41' E 135°11'0 0.0
2018-Feb-22 02:00N 34°41' E 135°11'0 0.0
2018-Feb-22 01:30N 34°41' E 135°11'0 0.0
2018-Feb-22 01:00N 34°41' E 135°11'0 0.0
2018-Feb-22 00:30N 34°41' E 135°11'0 0.0
2018-Feb-22 00:00N 34°41' E 135°11'0 0.0
2018-Feb-21 23:30N 34°41' E 135°11'0 0.0
2018-Feb-21 23:00N 34°41' E 135°11'0 0.0
2018-Feb-21 22:30N 34°41' E 135°11'0 0.0
2018-Feb-21 22:00N 34°41' E 135°11'0 0.0
2018-Feb-21 21:30N 34°41' E 135°11'0 0.0
2018-Feb-21 21:00N 34°41' E 135°11'0 0.0
2018-Feb-21 20:30N 34°41' E 135°11'0 0.0
2018-Feb-21 20:00N 34°41' E 135°11'0 0.0
2018-Feb-21 19:30N 34°41' E 135°11'0 0.0
2018-Feb-21 19:00N 34°41' E 135°11'0 0.0
2018-Feb-21 18:30N 34°41' E 135°11'0 0.0
2018-Feb-21 18:00N 34°41' E 135°11'0 0.0
2018-Feb-21 17:30N 34°41' E 135°11'0 0.0
2018-Feb-21 17:00N 34°41' E 135°11'0 0.0
2018-Feb-21 16:30N 34°41' E 135°11'0 0.0
2018-Feb-21 16:00N 34°41' E 135°11'0 0.0
2018-Feb-21 15:30N 34°41' E 135°11'0 0.0
2018-Feb-21 15:00N 34°41' E 135°11'0 0.0
2018-Feb-21 14:30N 34°41' E 135°11'0 0.0
2018-Feb-21 14:00N 34°41' E 135°11'0 0.0
2018-Feb-21 13:30N 34°41' E 135°11'0 0.0
2018-Feb-21 13:00N 34°41' E 135°11'0 0.0
2018-Feb-21 12:30N 34°41' E 135°11'1 2.1
2018-Feb-21 12:00N 34°40' E 135°12'511.0
2018-Feb-21 11:31N 34°36' E 135°07'713.9
2018-Feb-21 11:01N 34°37' E 134°59'612.8
2018-Feb-21 10:30N 34°37' E 135°07'510.8
2018-Feb-21 10:01N 34°41' E 135°11'0 0.0
2018-Feb-21 09:30N 34°41' E 135°11'1 2.1
2018-Feb-21 09:00N 34°40' E 135°12'4 8.2
2018-Feb-21 08:30N 34°38' E 135°07'5 9.2
2018-Feb-21 08:00N 34°41' E 135°11'0 0.0
2018-Feb-21 07:28N 34°41' E 135°11'0 0.0
2018-Feb-21 06:58N 34°41' E 135°11'0 0.0
2018-Feb-21 06:28N 34°41' E 135°11'0 0.0
2018-Feb-21 05:58N 34°41' E 135°11'0 0.0
2018-Feb-21 05:28N 34°41' E 135°11'0 0.0
2018-Feb-21 05:00N 34°41' E 135°11'3 5.1
2018-Feb-21 04:30N 34°38' E 135°11'3 5.4
2018-Feb-21 04:00N 34°37' E 135°08'4 7.7
2018-Feb-21 03:30N 34°38' E 135°12'3 6.7
2018-Feb-21 03:00N 34°41' E 135°11'0 0.0
2018-Feb-21 02:26N 34°41' E 135°11'0 0.0
2018-Feb-21 01:59N 34°41' E 135°11'0 0.0
2018-Feb-21 01:29N 34°41' E 135°11'0 0.0
2018-Feb-21 00:59N 34°41' E 135°11'0 0.0
2018-Feb-21 00:29N 34°41' E 135°11'0 0.0
2018-Feb-20 23:59N 34°41' E 135°11'0 0.0
2018-Feb-20 23:29N 34°41' E 135°11'0 0.0
2018-Feb-20 22:59N 34°41' E 135°11'0 0.0
2018-Feb-20 22:29N 34°41' E 135°11'0 0.0
2018-Feb-20 21:59N 34°41' E 135°11'0 0.0
2018-Feb-20 21:29N 34°41' E 135°11'0 0.0
2018-Feb-20 20:59N 34°41' E 135°11'0 0.0
2018-Feb-20 20:29N 34°41' E 135°11'0 0.0
2018-Feb-20 19:59N 34°41' E 135°11'0 0.0
2018-Feb-20 19:29N 34°41' E 135°11'0 0.0
2018-Feb-20 18:59N 34°41' E 135°11'0 0.0
2018-Feb-20 18:29N 34°41' E 135°11'0 0.0
2018-Feb-20 17:59N 34°41' E 135°11'0 0.0
2018-Feb-20 17:29N 34°41' E 135°11'0 0.0
2018-Feb-20 16:59N 34°41' E 135°11'0 0.0
2018-Feb-20 16:29N 34°41' E 135°11'0 0.0
2018-Feb-20 15:59N 34°41' E 135°11'0 0.0
2018-Feb-20 15:29N 34°41' E 135°11'0 0.0
2018-Feb-20 14:59N 34°41' E 135°11'0 0.0
2018-Feb-20 14:29N 34°41' E 135°11'0 0.0
2018-Feb-20 13:59N 34°41' E 135°11'0 0.0
2018-Feb-20 13:29N 34°41' E 135°11'0 0.0
2018-Feb-20 12:59N 34°41' E 135°11'0 0.0
2018-Feb-20 12:22N 34°41' E 135°11'1 3.1
2018-Feb-20 12:00N 34°40' E 135°12'611.9
2018-Feb-20 11:31N 34°35' E 135°06'612.8
2018-Feb-20 11:00N 34°38' E 134°59'713.3
2018-Feb-20 10:31N 34°37' E 135°07'510.4
2018-Feb-20 10:00N 34°41' E 135°11'0 0.0
2018-Feb-20 09:29N 34°41' E 135°11'1 2.1
2018-Feb-20 09:00N 34°40' E 135°12'4 8.6
2018-Feb-20 08:31N 34°37' E 135°07'5 9.7
2018-Feb-20 08:01N 34°41' E 135°11'0 0.0
2018-Feb-20 07:29N 34°41' E 135°11'0 0.0
2018-Feb-20 06:59N 34°41' E 135°11'0 0.0
2018-Feb-20 06:29N 34°41' E 135°11'0 0.0
2018-Feb-20 05:59N 34°41' E 135°11'0 0.0
2018-Feb-20 05:29N 34°41' E 135°11'0 0.0
2018-Feb-20 05:00N 34°41' E 135°11'3 5.3
2018-Feb-20 04:30N 34°38' E 135°11'4 7.4
2018-Feb-20 04:01N 34°37' E 135°06'611.2
2018-Feb-20 03:30N 34°37' E 135°13'4 7.6
2018-Feb-20 03:00N 34°41' E 135°11'0 0.0
2018-Feb-20 02:28N 34°41' E 135°11'0 0.0
2018-Feb-20 01:58N 34°41' E 135°11'0 0.0
2018-Feb-20 01:28N 34°41' E 135°11'0 0.0
2018-Feb-20 00:58N 34°41' E 135°11'0 0.0
2018-Feb-20 00:28N 34°41' E 135°11'0 0.0
2018-Feb-19 23:58N 34°41' E 135°11'0 0.0
2018-Feb-19 23:28N 34°41' E 135°11'0 0.0
2018-Feb-19 22:58N 34°41' E 135°11'0 0.0
2018-Feb-19 22:28N 34°41' E 135°11'0 0.0
2018-Feb-19 21:58N 34°41' E 135°11'0 0.0
2018-Feb-19 21:22N 34°41' E 135°11'0 0.0
2018-Feb-19 20:58N 34°41' E 135°11'0 0.0
2018-Feb-19 20:28N 34°41' E 135°11'0 0.0
2018-Feb-19 19:58N 34°41' E 135°11'0 0.0
2018-Feb-19 19:28N 34°41' E 135°11'0 0.0
2018-Feb-19 18:58N 34°41' E 135°11'0 0.0
2018-Feb-19 18:28N 34°41' E 135°11'0 0.0
2018-Feb-19 17:58N 34°41' E 135°11'0 0.0
2018-Feb-19 17:28N 34°41' E 135°11'0 0.0
2018-Feb-19 16:58N 34°41' E 135°11'0 0.0
2018-Feb-19 16:28N 34°41' E 135°11'0 0.0
2018-Feb-19 15:58N 34°41' E 135°11'0 0.0
2018-Feb-19 15:28N 34°41' E 135°11'0 0.0
2018-Feb-19 14:58N 34°41' E 135°11'0 0.0
2018-Feb-19 14:28N 34°41' E 135°11'0 0.0
2018-Feb-19 13:58N 34°41' E 135°11'0 0.0
2018-Feb-19 13:28N 34°41' E 135°11'0 0.0
2018-Feb-19 12:58N 34°41' E 135°11'0 0.0
2018-Feb-19 12:25N 34°41' E 135°11'1 3.3
2018-Feb-19 12:00N 34°39' E 135°11'613.0
2018-Feb-19 11:31N 34°35' E 135°06'611.7
2018-Feb-19 11:00N 34°38' E 134°59'713.3
2018-Feb-19 10:31N 34°37' E 135°07'510.5
2018-Feb-19 10:01N 34°41' E 135°11'0 0.0
2018-Feb-19 09:30N 34°41' E 135°11'1 1.9
2018-Feb-19 09:00N 34°40' E 135°12'4 8.7
2018-Feb-19 08:31N 34°38' E 135°07'5 9.6
2018-Feb-19 08:01N 34°41' E 135°11'0 0.0
2018-Feb-19 07:28N 34°41' E 135°11'0 0.0
2018-Feb-19 06:58N 34°41' E 135°11'0 0.0
2018-Feb-19 06:28N 34°41' E 135°11'0 0.0
2018-Feb-19 05:58N 34°41' E 135°11'0 0.0
2018-Feb-19 05:28N 34°41' E 135°11'0 0.0
2018-Feb-19 05:00N 34°41' E 135°11'3 5.1
2018-Feb-19 04:30N 34°38' E 135°10'3 5.8
2018-Feb-19 04:00N 34°37' E 135°07'4 8.1
2018-Feb-19 03:30N 34°38' E 135°12'3 6.6
2018-Feb-19 03:00N 34°41' E 135°11'0 0.0
2018-Feb-19 02:30N 34°41' E 135°11'0 0.0
2018-Feb-19 02:00N 34°41' E 135°11'0 0.0
2018-Feb-19 01:30N 34°41' E 135°11'0 0.0
2018-Feb-19 01:00N 34°41' E 135°11'0 0.0
2018-Feb-19 00:27N 34°41' E 135°11'0 0.0
2018-Feb-19 00:00N 34°41' E 135°11'0 0.0
2018-Feb-18 23:30N 34°41' E 135°11'0 0.0
2018-Feb-18 23:00N 34°41' E 135°11'0 0.0
2018-Feb-18 22:30N 34°41' E 135°11'0 0.0
2018-Feb-18 22:00N 34°41' E 135°11'0 0.0
2018-Feb-18 21:30N 34°41' E 135°11'0 0.0
2018-Feb-18 21:00N 34°41' E 135°11'0 0.0
2018-Feb-18 20:30N 34°41' E 135°11'0 0.0
2018-Feb-18 20:00N 34°41' E 135°11'0 0.0
2018-Feb-18 19:30N 34°41' E 135°11'0 0.0
2018-Feb-18 19:00N 34°41' E 135°11'0 0.0
2018-Feb-18 18:30N 34°41' E 135°11'0 0.0
2018-Feb-18 18:00N 34°41' E 135°11'0 0.0
2018-Feb-18 17:30N 34°41' E 135°11'0 0.0
2018-Feb-18 17:00N 34°41' E 135°11'0 0.0
2018-Feb-18 16:30N 34°41' E 135°11'0 0.0
2018-Feb-18 16:00N 34°41' E 135°11'0 0.0
2018-Feb-18 15:30N 34°41' E 135°11'0 0.0
2018-Feb-18 15:00N 34°41' E 135°11'0 0.0
2018-Feb-18 14:30N 34°41' E 135°11'0 0.0
2018-Feb-18 14:00N 34°41' E 135°11'0 0.0
2018-Feb-18 13:30N 34°41' E 135°11'0 0.0
2018-Feb-18 13:00N 34°41' E 135°11'0 0.0
2018-Feb-18 12:30N 34°41' E 135°11'2 4.0
2018-Feb-18 12:01N 34°39' E 135°11'612.4
2018-Feb-18 11:30N 34°35' E 135°05'611.8
2018-Feb-18 11:01N 34°37' E 134°59'714.7
2018-Feb-18 10:30N 34°37' E 135°08'5 9.2
2018-Feb-18 10:00N 34°41' E 135°11'0 0.0
2018-Feb-18 09:28N 34°41' E 135°11'0 0.0
2018-Feb-18 08:58N 34°41' E 135°11'2 4.6
2018-Feb-18 08:31N 34°39' E 135°11'3 5.9
2018-Feb-18 08:00N 34°37' E 135°08'3 6.6
2018-Feb-18 07:30N 34°37' E 135°12'3 6.9
2018-Feb-18 07:00N 34°41' E 135°11'0 0.0
2018-Feb-18 06:29N 34°41' E 135°11'0 0.0
2018-Feb-18 05:59N 34°41' E 135°11'0 0.0
2018-Feb-18 05:29N 34°41' E 135°11'0 0.0
2018-Feb-18 05:00N 34°41' E 135°11'3 5.2
2018-Feb-18 04:30N 34°38' E 135°11'4 8.4
2018-Feb-18 04:00N 34°36' E 135°06'510.9
2018-Feb-18 03:30N 34°37' E 135°13'4 7.3
2018-Feb-18 03:00N 34°41' E 135°11'0 0.0
2018-Feb-18 02:28N 34°41' E 135°11'0 0.0
2018-Feb-18 01:58N 34°41' E 135°11'0 0.0
2018-Feb-18 01:28N 34°41' E 135°11'0 0.0
2018-Feb-18 00:55N 34°41' E 135°11'0 0.0
2018-Feb-18 00:28N 34°41' E 135°11'0 0.0
2018-Feb-17 23:58N 34°41' E 135°11'0 0.0
2018-Feb-17 23:28N 34°41' E 135°11'0 0.0
2018-Feb-17 22:58N 34°41' E 135°11'0 0.0
2018-Feb-17 22:28N 34°41' E 135°11'0 0.0
2018-Feb-17 21:58N 34°41' E 135°11'0 0.0
2018-Feb-17 21:28N 34°41' E 135°11'0 0.0
2018-Feb-17 20:58N 34°41' E 135°11'0 0.0
2018-Feb-17 20:25N 34°41' E 135°11'0 0.0
2018-Feb-17 19:58N 34°41' E 135°11'0 0.0
2018-Feb-17 19:28N 34°41' E 135°11'0 0.0
2018-Feb-17 18:58N 34°41' E 135°11'0 0.0
2018-Feb-17 18:28N 34°41' E 135°11'0 0.0
2018-Feb-17 17:58N 34°41' E 135°11'0 0.0
2018-Feb-17 17:28N 34°41' E 135°11'0 0.0
2018-Feb-17 16:58N 34°41' E 135°11'0 0.0
2018-Feb-17 16:28N 34°41' E 135°11'0 0.0
2018-Feb-17 15:58N 34°41' E 135°11'0 0.0
2018-Feb-17 15:28N 34°41' E 135°11'0 0.0
2018-Feb-17 14:58N 34°41' E 135°11'0 0.0
2018-Feb-17 14:28N 34°41' E 135°11'0 0.0
2018-Feb-17 13:58N 34°41' E 135°11'0 0.0
2018-Feb-17 13:28N 34°41' E 135°11'0 0.0
2018-Feb-17 12:58N 34°41' E 135°11'0 0.0
2018-Feb-17 12:28N 34°41' E 135°11'2 3.7
2018-Feb-17 12:00N 34°39' E 135°11'611.4
2018-Feb-17 11:30N 34°35' E 135°06'612.6
2018-Feb-17 11:00N 34°37' E 134°59'713.1
2018-Feb-17 10:31N 34°37' E 135°07'510.8
2018-Feb-17 10:00N 34°41' E 135°11'0 0.0
2018-Feb-17 09:30N 34°41' E 135°11'0 0.0
2018-Feb-17 09:00N 34°41' E 135°11'2 4.0
2018-Feb-17 08:30N 34°39' E 135°11'3 5.6
2018-Feb-17 08:00N 34°37' E 135°09'3 6.9
2018-Feb-17 07:30N 34°37' E 135°13'4 6.8
2018-Feb-17 06:58N 34°41' E 135°11'0 0.0
2018-Feb-17 06:28N 34°41' E 135°11'0 0.0
2018-Feb-17 05:58N 34°41' E 135°11'0 0.0
2018-Feb-17 05:28N 34°41' E 135°11'0 0.0
2018-Feb-17 04:59N 34°41' E 135°11'3 5.7
2018-Feb-17 04:31N 34°38' E 135°11'5 9.1
2018-Feb-17 04:00N 34°37' E 135°06'612.5
2018-Feb-17 03:30N 34°37' E 135°13'4 8.5
2018-Feb-17 03:00N 34°41' E 135°11'0 0.0
2018-Feb-17 02:30N 34°41' E 135°11'0 0.0
2018-Feb-17 02:00N 34°41' E 135°11'0 0.0
2018-Feb-17 01:30N 34°41' E 135°11'0 0.0
2018-Feb-17 01:00N 34°41' E 135°11'0 0.0
2018-Feb-17 00:30N 34°41' E 135°11'0 0.0
2018-Feb-17 00:00N 34°41' E 135°11'0 0.0
2018-Feb-16 23:30N 34°41' E 135°11'0 0.0
2018-Feb-16 23:00N 34°41' E 135°11'0 0.0
2018-Feb-16 22:30N 34°41' E 135°11'0 0.0
2018-Feb-16 22:00N 34°41' E 135°11'0 0.0
2018-Feb-16 21:30N 34°41' E 135°11'0 0.0
2018-Feb-16 21:00N 34°41' E 135°11'0 0.0
2018-Feb-16 20:30N 34°41' E 135°11'0 0.0
2018-Feb-16 20:00N 34°41' E 135°11'0 0.0
2018-Feb-16 19:30N 34°41' E 135°11'0 0.0
2018-Feb-16 19:00N 34°41' E 135°11'0 0.0
2018-Feb-16 18:30N 34°41' E 135°11'0 0.0
2018-Feb-16 18:00N 34°41' E 135°11'0 0.0
2018-Feb-16 17:30N 34°41' E 135°11'0 0.0
2018-Feb-16 17:00N 34°41' E 135°11'0 0.0
2018-Feb-16 16:24N 34°41' E 135°11'0 0.0
2018-Feb-16 16:00N 34°41' E 135°11'0 0.0
2018-Feb-16 15:30N 34°41' E 135°11'0 0.0
2018-Feb-16 15:00N 34°41' E 135°11'0 0.0
2018-Feb-16 14:30N 34°41' E 135°11'0 0.0
2018-Feb-16 14:00N 34°41' E 135°11'0 0.0
2018-Feb-16 13:30N 34°41' E 135°11'0 0.0
2018-Feb-16 13:00N 34°41' E 135°11'0 0.0
2018-Feb-16 12:30N 34°41' E 135°11'1 2.5
2018-Feb-16 12:00N 34°40' E 135°11'611.6
2018-Feb-16 11:31N 34°36' E 135°06'612.0
2018-Feb-16 11:00N 34°37' E 134°59'612.5
2018-Feb-16 10:30N 34°37' E 135°07'611.0
2018-Feb-16 10:00N 34°41' E 135°11'0 0.0
2018-Feb-16 09:30N 34°41' E 135°11'1 2.1
2018-Feb-16 09:00N 34°40' E 135°12'4 8.8
2018-Feb-16 08:30N 34°37' E 135°07'5 9.8
2018-Feb-16 08:01N 34°41' E 135°11'0 0.0
2018-Feb-16 07:30N 34°41' E 135°11'0 0.0
2018-Feb-16 07:00N 34°41' E 135°11'0 0.0
2018-Feb-16 06:30N 34°41' E 135°11'0 0.0
2018-Feb-16 06:00N 34°41' E 135°11'0 0.0
2018-Feb-16 05:31N 34°41' E 135°11'0 0.0
2018-Feb-16 05:00N 34°41' E 135°11'3 5.2
2018-Feb-16 04:30N 34°38' E 135°11'4 7.6
2018-Feb-16 04:00N 34°37' E 135°06'5 9.9
2018-Feb-16 03:30N 34°37' E 135°12'3 6.9
2018-Feb-16 03:00N 34°41' E 135°11'0 0.0
2018-Feb-16 02:29N 34°41' E 135°11'0 0.0
2018-Feb-16 01:59N 34°41' E 135°11'0 0.0
2018-Feb-16 01:29N 34°41' E 135°11'0 0.0
2018-Feb-16 00:59N 34°41' E 135°11'0 0.0
2018-Feb-16 00:29N 34°41' E 135°11'0 0.0
2018-Feb-15 23:56N 34°41' E 135°11'0 0.0
2018-Feb-15 23:29N 34°41' E 135°11'0 0.0
2018-Feb-15 22:59N 34°41' E 135°11'0 0.0
2018-Feb-15 22:29N 34°41' E 135°11'0 0.0
2018-Feb-15 21:59N 34°41' E 135°11'0 0.0
2018-Feb-15 21:29N 34°41' E 135°11'0 0.0
2018-Feb-15 20:59N 34°41' E 135°11'0 0.0
2018-Feb-15 20:29N 34°41' E 135°11'0 0.0
2018-Feb-15 19:59N 34°41' E 135°11'0 0.0
2018-Feb-15 19:29N 34°41' E 135°11'0 0.0
2018-Feb-15 18:59N 34°41' E 135°11'0 0.0
2018-Feb-15 18:29N 34°41' E 135°11'0 0.0
2018-Feb-15 17:59N 34°41' E 135°11'0 0.0
2018-Feb-15 17:29N 34°41' E 135°11'0 0.0
2018-Feb-15 16:59N 34°41' E 135°11'0 0.0
2018-Feb-15 16:29N 34°41' E 135°11'0 0.0
2018-Feb-15 15:59N 34°41' E 135°11'0 0.0
2018-Feb-15 15:29N 34°41' E 135°11'0 0.0
2018-Feb-15 14:59N 34°41' E 135°11'0 0.0
2018-Feb-15 14:29N 34°41' E 135°11'0 0.0
2018-Feb-15 13:59N 34°41' E 135°11'0 0.0
2018-Feb-15 13:29N 34°41' E 135°11'0 0.0
2018-Feb-15 12:59N 34°41' E 135°11'0 0.0
2018-Feb-15 12:29N 34°41' E 135°11'1 2.6
2018-Feb-15 12:01N 34°40' E 135°11'612.6
2018-Feb-15 11:31N 34°35' E 135°06'612.6
2018-Feb-15 11:01N 34°37' E 134°59'713.0
2018-Feb-15 10:31N 34°37' E 135°07'611.0
2018-Feb-15 10:00N 34°41' E 135°11'0 0.0
2018-Feb-15 09:28N 34°41' E 135°11'1 2.4
2018-Feb-15 09:00N 34°40' E 135°12'4 8.6
2018-Feb-15 08:30N 34°37' E 135°07'5 9.7
2018-Feb-15 08:00N 34°41' E 135°11'0 0.0
2018-Feb-15 07:28N 34°41' E 135°11'0 0.0
2018-Feb-15 06:58N 34°41' E 135°11'0 0.0
2018-Feb-15 06:25N 34°41' E 135°11'0 0.0
2018-Feb-15 05:58N 34°41' E 135°11'0 0.0
2018-Feb-15 05:28N 34°41' E 135°11'0 0.0
2018-Feb-15 05:00N 34°41' E 135°11'3 5.3
2018-Feb-15 04:30N 34°38' E 135°10'4 7.1
2018-Feb-15 04:00N 34°37' E 135°06'5 9.5
2018-Feb-15 03:30N 34°38' E 135°12'3 6.7
2018-Feb-15 03:00N 34°41' E 135°11'0 0.0
2018-Feb-15 02:28N 34°41' E 135°11'0 0.0
2018-Feb-15 01:58N 34°41' E 135°11'0 0.0
2018-Feb-15 01:28N 34°41' E 135°11'0 0.0
2018-Feb-15 00:58N 34°41' E 135°11'0 0.0
2018-Feb-15 00:28N 34°41' E 135°11'0 0.0
2018-Feb-14 23:58N 34°41' E 135°11'0 0.0
2018-Feb-14 23:28N 34°41' E 135°11'0 0.0
2018-Feb-14 22:58N 34°41' E 135°11'0 0.0
2018-Feb-14 22:28N 34°41' E 135°11'0 0.0
2018-Feb-14 21:58N 34°41' E 135°11'0 0.0
2018-Feb-14 21:28N 34°41' E 135°11'0 0.0
2018-Feb-14 20:58N 34°41' E 135°11'0 0.0
2018-Feb-14 20:28N 34°41' E 135°11'0 0.0
2018-Feb-14 19:58N 34°41' E 135°11'0 0.0
2018-Feb-14 19:28N 34°41' E 135°11'0 0.0
2018-Feb-14 18:58N 34°41' E 135°11'0 0.0
2018-Feb-14 18:28N 34°41' E 135°11'0 0.0
2018-Feb-14 17:58N 34°41' E 135°11'0 0.0
2018-Feb-14 17:28N 34°41' E 135°11'0 0.0
2018-Feb-14 16:58N 34°41' E 135°11'0 0.0
2018-Feb-14 16:28N 34°41' E 135°11'0 0.0
2018-Feb-14 15:58N 34°41' E 135°11'0 0.0
2018-Feb-14 15:28N 34°41' E 135°11'0 0.0
2018-Feb-14 14:58N 34°41' E 135°11'0 0.0
2018-Feb-14 14:28N 34°41' E 135°11'0 0.0
2018-Feb-14 13:58N 34°41' E 135°11'0 0.0
2018-Feb-14 13:28N 34°41' E 135°11'0 0.0
2018-Feb-14 12:58N 34°41' E 135°11'0 0.0
2018-Feb-14 12:28N 34°41' E 135°11'1 2.6
2018-Feb-14 12:00N 34°40' E 135°11'713.1
2018-Feb-14 11:30N 34°35' E 135°06'612.7
2018-Feb-14 11:00N 34°37' E 134°59'713.2
2018-Feb-14 10:30N 34°37' E 135°07'510.4
2018-Feb-14 09:59N 34°41' E 135°11'0 0.0
2018-Feb-14 09:28N 34°41' E 135°11'1 2.3
2018-Feb-14 09:00N 34°40' E 135°12'4 8.7
2018-Feb-14 08:31N 34°37' E 135°07'5 9.7
2018-Feb-14 08:01N 34°41' E 135°11'0 0.0
2018-Feb-14 07:29N 34°41' E 135°11'0 0.0
2018-Feb-14 06:59N 34°41' E 135°11'0 0.0
2018-Feb-14 06:29N 34°41' E 135°11'  
Track history (hours):
 
Tides and Currents Weather Stations Pressure Air Temp Water Temp Dewpoint Dewpoint Depression Visibility Wind Speed Wind Dir Waves Ship Positions

Luminous Kobe-2

Last reported at 2018-Feb-24 06:00 UTC. Time now 2018-Feb-24 06:16 UTC.
Position N 34°41' E 135°11'.

Length 105 m; draft 4.4 m.

Type: Passenger vessel. MMSI: 431000469.

Date/timePositionNaut miles runAvg speedWind from/ knotsBaromVisibWave heightAir tempDewpointWater temp
2018-Feb-24 06:00N 34°41' E 135°11'0 0.0
2018-Feb-24 05:30N 34°41' E 135°11'0 0.0
2018-Feb-24 05:00N 34°41' E 135°11'3 5.2
2018-Feb-24 04:30N 34°38' E 135°10'3 6.3
2018-Feb-24 04:00N 34°37' E 135°07'4 8.7
2018-Feb-24 03:30N 34°38' E 135°12'3 6.7
2018-Feb-24 03:01N 34°41' E 135°11'0 0.0
2018-Feb-24 02:30N 34°41' E 135°11'0 0.0
2018-Feb-24 02:00N 34°41' E 135°11'0 0.0
2018-Feb-24 01:30N 34°41' E 135°11'0 0.0
2018-Feb-24 01:00N 34°41' E 135°11'0 0.0
2018-Feb-24 00:30N 34°41' E 135°11'0 0.0
2018-Feb-24 00:00N 34°41' E 135°11'0 0.0
2018-Feb-23 23:30N 34°41' E 135°11'0 0.0
2018-Feb-23 23:00N 34°41' E 135°11'0 0.0
2018-Feb-23 22:30N 34°41' E 135°11'0 0.0
2018-Feb-23 21:57N 34°41' E 135°11'0 0.0
2018-Feb-23 21:30N 34°41' E 135°11'0 0.0
2018-Feb-23 21:00N 34°41' E 135°11'0 0.0
2018-Feb-23 20:30N 34°41' E 135°11'0 0.0
2018-Feb-23 20:00N 34°41' E 135°11'0 0.0
2018-Feb-23 19:30N 34°41' E 135°11'0 0.0
2018-Feb-23 19:00N 34°41' E 135°11'0 0.0
2018-Feb-23 18:30N 34°41' E 135°11'0 0.0
2018-Feb-23 18:00N 34°41' E 135°11'0 0.0
2018-Feb-23 17:30N 34°41' E 135°11'0 0.0
2018-Feb-23 17:00N 34°41' E 135°11'0 0.0
2018-Feb-23 16:30N 34°41' E 135°11'0 0.0
2018-Feb-23 16:00N 34°41' E 135°11'0 0.0
2018-Feb-23 15:30N 34°41' E 135°11'0 0.0
2018-Feb-23 15:00N 34°41' E 135°11'0 0.0
2018-Feb-23 14:30N 34°41' E 135°11'0 0.0
2018-Feb-23 14:00N 34°41' E 135°11'0 0.0
2018-Feb-23 13:30N 34°41' E 135°11'0 0.0
2018-Feb-23 13:00N 34°41' E 135°11'0 0.0
2018-Feb-23 12:30N 34°41' E 135°11'2 3.2
2018-Feb-23 12:00N 34°39' E 135°11'714.4
2018-Feb-23 11:31N 34°35' E 135°05'4 8.3
2018-Feb-23 11:01N 34°37' E 135°01'612.1
2018-Feb-23 10:31N 34°37' E 135°09'4 8.2
2018-Feb-23 10:01N 34°41' E 135°11'0 0.0
2018-Feb-23 09:29N 34°41' E 135°11'1 2.0
2018-Feb-23 09:00N 34°40' E 135°12'4 8.8
2018-Feb-23 08:31N 34°37' E 135°07'5 9.6
2018-Feb-23 08:00N 34°41' E 135°11'0 0.0
2018-Feb-23 07:28N 34°41' E 135°11'0 0.0
2018-Feb-23 06:58N 34°41' E 135°11'0 0.0
2018-Feb-23 06:28N 34°41' E 135°11'0 0.0
2018-Feb-23 05:58N 34°41' E 135°11'0 0.0
2018-Feb-23 05:28N 34°41' E 135°11'0 0.0
2018-Feb-23 05:00N 34°41' E 135°11'3 5.3
2018-Feb-23 04:30N 34°38' E 135°10'2 3.6
2018-Feb-23 04:00N 34°37' E 135°09'3 6.7
2018-Feb-23 03:30N 34°37' E 135°13'4 7.7
2018-Feb-23 03:00N 34°41' E 135°11'0 0.0
2018-Feb-23 02:29N 34°41' E 135°11'0 0.0
2018-Feb-23 01:59N 34°41' E 135°11'0 0.0
2018-Feb-23 01:29N 34°41' E 135°11'0 0.0
2018-Feb-23 00:59N 34°41' E 135°11'0 0.0
2018-Feb-23 00:29N 34°41' E 135°11'0 0.0
2018-Feb-22 23:59N 34°41' E 135°11'0 0.0
2018-Feb-22 23:29N 34°41' E 135°11'0 0.0
2018-Feb-22 22:59N 34°41' E 135°11'0 0.0
2018-Feb-22 22:29N 34°41' E 135°11'0 0.0
2018-Feb-22 21:59N 34°41' E 135°11'0 0.0
2018-Feb-22 21:26N 34°41' E 135°11'0 0.0
2018-Feb-22 20:59N 34°41' E 135°11'0 0.0
2018-Feb-22 20:29N 34°41' E 135°11'0 0.0
2018-Feb-22 19:59N 34°41' E 135°11'0 0.0
2018-Feb-22 19:29N 34°41' E 135°11'0 0.0
2018-Feb-22 18:59N 34°41' E 135°11'0 0.0
2018-Feb-22 18:29N 34°41' E 135°11'0 0.0
2018-Feb-22 17:59N 34°41' E 135°11'0 0.0
2018-Feb-22 17:29N 34°41' E 135°11'0 0.0
2018-Feb-22 16:59N 34°41' E 135°11'0 0.0
2018-Feb-22 16:29N 34°41' E 135°11'0 0.0
2018-Feb-22 15:59N 34°41' E 135°11'0 0.0
2018-Feb-22 15:29N 34°41' E 135°11'0 0.0
2018-Feb-22 14:59N 34°41' E 135°11'0 0.0
2018-Feb-22 14:29N 34°41' E 135°11'0 0.0
2018-Feb-22 13:59N 34°41' E 135°11'0 0.0
2018-Feb-22 13:29N 34°41' E 135°11'0 0.0
2018-Feb-22 12:59N 34°41' E 135°11'0 0.0
2018-Feb-22 12:29N 34°41' E 135°11'1 2.7
2018-Feb-22 12:00N 34°40' E 135°11'611.5
2018-Feb-22 11:30N 34°36' E 135°06'612.4
2018-Feb-22 11:00N 34°38' E 134°59'613.0
2018-Feb-22 10:30N 34°37' E 135°07'510.3
2018-Feb-22 10:00N 34°41' E 135°11'0 0.0
2018-Feb-22 09:30N 34°41' E 135°11'1 2.0
2018-Feb-22 09:00N 34°40' E 135°12'4 8.9
2018-Feb-22 08:30N 34°37' E 135°07'5 9.7
2018-Feb-22 08:00N 34°41' E 135°11'0 0.0
2018-Feb-22 07:30N 34°41' E 135°11'0 0.0
2018-Feb-22 07:00N 34°41' E 135°11'0 0.0
2018-Feb-22 06:30N 34°41' E 135°11'0 0.0
2018-Feb-22 06:00N 34°41' E 135°11'0 0.0
2018-Feb-22 05:30N 34°41' E 135°11'0 0.0
2018-Feb-22 05:00N 34°41' E 135°11'3 5.7
2018-Feb-22 04:31N 34°38' E 135°10'3 6.8
2018-Feb-22 04:01N 34°37' E 135°06'510.7
2018-Feb-22 03:30N 34°38' E 135°13'3 7.0
2018-Feb-22 03:00N 34°41' E 135°11'0 0.0
2018-Feb-22 02:30N 34°41' E 135°11'0 0.0
2018-Feb-22 02:00N 34°41' E 135°11'0 0.0
2018-Feb-22 01:30N 34°41' E 135°11'0 0.0
2018-Feb-22 01:00N 34°41' E 135°11'0 0.0
2018-Feb-22 00:30N 34°41' E 135°11'0 0.0
2018-Feb-22 00:00N 34°41' E 135°11'0 0.0
2018-Feb-21 23:30N 34°41' E 135°11'0 0.0
2018-Feb-21 23:00N 34°41' E 135°11'0 0.0
2018-Feb-21 22:30N 34°41' E 135°11'0 0.0
2018-Feb-21 22:00N 34°41' E 135°11'0 0.0
2018-Feb-21 21:30N 34°41' E 135°11'0 0.0
2018-Feb-21 21:00N 34°41' E 135°11'0 0.0
2018-Feb-21 20:30N 34°41' E 135°11'0 0.0
2018-Feb-21 20:00N 34°41' E 135°11'0 0.0
2018-Feb-21 19:30N 34°41' E 135°11'0 0.0
2018-Feb-21 19:00N 34°41' E 135°11'0 0.0
2018-Feb-21 18:30N 34°41' E 135°11'0 0.0
2018-Feb-21 18:00N 34°41' E 135°11'0 0.0
2018-Feb-21 17:30N 34°41' E 135°11'0 0.0
2018-Feb-21 17:00N 34°41' E 135°11'0 0.0
2018-Feb-21 16:30N 34°41' E 135°11'0 0.0
2018-Feb-21 16:00N 34°41' E 135°11'0 0.0
2018-Feb-21 15:30N 34°41' E 135°11'0 0.0
2018-Feb-21 15:00N 34°41' E 135°11'0 0.0
2018-Feb-21 14:30N 34°41' E 135°11'0 0.0
2018-Feb-21 14:00N 34°41' E 135°11'0 0.0
2018-Feb-21 13:30N 34°41' E 135°11'0 0.0
2018-Feb-21 13:00N 34°41' E 135°11'0 0.0
2018-Feb-21 12:30N 34°41' E 135°11'1 2.1
2018-Feb-21 12:00N 34°40' E 135°12'511.0
2018-Feb-21 11:31N 34°36' E 135°07'713.9
2018-Feb-21 11:01N 34°37' E 134°59'612.8
2018-Feb-21 10:30N 34°37' E 135°07'510.8
2018-Feb-21 10:01N 34°41' E 135°11'0 0.0
2018-Feb-21 09:30N 34°41' E 135°11'1 2.1
2018-Feb-21 09:00N 34°40' E 135°12'4 8.2
2018-Feb-21 08:30N 34°38' E 135°07'5 9.2
2018-Feb-21 08:00N 34°41' E 135°11'0 0.0
2018-Feb-21 07:28N 34°41' E 135°11'0 0.0
2018-Feb-21 06:58N 34°41' E 135°11'0 0.0
2018-Feb-21 06:28N 34°41' E 135°11'0 0.0
2018-Feb-21 05:58N 34°41' E 135°11'0 0.0
2018-Feb-21 05:28N 34°41' E 135°11'0 0.0
2018-Feb-21 05:00N 34°41' E 135°11'3 5.1
2018-Feb-21 04:30N 34°38' E 135°11'3 5.4
2018-Feb-21 04:00N 34°37' E 135°08'4 7.7
2018-Feb-21 03:30N 34°38' E 135°12'3 6.7
2018-Feb-21 03:00N 34°41' E 135°11'0 0.0
2018-Feb-21 02:26N 34°41' E 135°11'0 0.0
2018-Feb-21 01:59N 34°41' E 135°11'0 0.0
2018-Feb-21 01:29N 34°41' E 135°11'0 0.0
2018-Feb-21 00:59N 34°41' E 135°11'0 0.0
2018-Feb-21 00:29N 34°41' E 135°11'0 0.0
2018-Feb-20 23:59N 34°41' E 135°11'0 0.0
2018-Feb-20 23:29N 34°41' E 135°11'0 0.0
2018-Feb-20 22:59N 34°41' E 135°11'0 0.0
2018-Feb-20 22:29N 34°41' E 135°11'0 0.0
2018-Feb-20 21:59N 34°41' E 135°11'0 0.0
2018-Feb-20 21:29N 34°41' E 135°11'0 0.0
2018-Feb-20 20:59N 34°41' E 135°11'0 0.0
2018-Feb-20 20:29N 34°41' E 135°11'0 0.0
2018-Feb-20 19:59N 34°41' E 135°11'0 0.0
2018-Feb-20 19:29N 34°41' E 135°11'0 0.0
2018-Feb-20 18:59N 34°41' E 135°11'0 0.0
2018-Feb-20 18:29N 34°41' E 135°11'0 0.0
2018-Feb-20 17:59N 34°41' E 135°11'0 0.0
2018-Feb-20 17:29N 34°41' E 135°11'0 0.0
2018-Feb-20 16:59N 34°41' E 135°11'0 0.0
2018-Feb-20 16:29N 34°41' E 135°11'0 0.0
2018-Feb-20 15:59N 34°41' E 135°11'0 0.0
2018-Feb-20 15:29N 34°41' E 135°11'0 0.0
2018-Feb-20 14:59N 34°41' E 135°11'0 0.0
2018-Feb-20 14:29N 34°41' E 135°11'0 0.0
2018-Feb-20 13:59N 34°41' E 135°11'0 0.0
2018-Feb-20 13:29N 34°41' E 135°11'0 0.0
2018-Feb-20 12:59N 34°41' E 135°11'0 0.0
2018-Feb-20 12:22N 34°41' E 135°11'1 3.1
2018-Feb-20 12:00N 34°40' E 135°12'611.9
2018-Feb-20 11:31N 34°35' E 135°06'612.8
2018-Feb-20 11:00N 34°38' E 134°59'713.3
2018-Feb-20 10:31N 34°37' E 135°07'510.4
2018-Feb-20 10:00N 34°41' E 135°11'0 0.0
2018-Feb-20 09:29N 34°41' E 135°11'1 2.1
2018-Feb-20 09:00N 34°40' E 135°12'4 8.6
2018-Feb-20 08:31N 34°37' E 135°07'5 9.7
2018-Feb-20 08:01N 34°41' E 135°11'0 0.0
2018-Feb-20 07:29N 34°41' E 135°11'0 0.0
2018-Feb-20 06:59N 34°41' E 135°11'0 0.0
2018-Feb-20 06:29N 34°41' E 135°11'0 0.0
2018-Feb-20 05:59N 34°41' E 135°11'0 0.0
2018-Feb-20 05:29N 34°41' E 135°11'0 0.0
2018-Feb-20 05:00N 34°41' E 135°11'3 5.3
2018-Feb-20 04:30N 34°38' E 135°11'4 7.4
2018-Feb-20 04:01N 34°37' E 135°06'611.2
2018-Feb-20 03:30N 34°37' E 135°13'4 7.6
2018-Feb-20 03:00N 34°41' E 135°11'0 0.0
2018-Feb-20 02:28N 34°41' E 135°11'0 0.0
2018-Feb-20 01:58N 34°41' E 135°11'0 0.0
2018-Feb-20 01:28N 34°41' E 135°11'0 0.0
2018-Feb-20 00:58N 34°41' E 135°11'0 0.0
2018-Feb-20 00:28N 34°41' E 135°11'0 0.0
2018-Feb-19 23:58N 34°41' E 135°11'0 0.0
2018-Feb-19 23:28N 34°41' E 135°11'0 0.0
2018-Feb-19 22:58N 34°41' E 135°11'0 0.0
2018-Feb-19 22:28N 34°41' E 135°11'0 0.0
2018-Feb-19 21:58N 34°41' E 135°11'0 0.0
2018-Feb-19 21:22N 34°41' E 135°11'0 0.0
2018-Feb-19 20:58N 34°41' E 135°11'0 0.0
2018-Feb-19 20:28N 34°41' E 135°11'0 0.0
2018-Feb-19 19:58N 34°41' E 135°11'0 0.0
2018-Feb-19 19:28N 34°41' E 135°11'0 0.0
2018-Feb-19 18:58N 34°41' E 135°11'0 0.0
2018-Feb-19 18:28N 34°41' E 135°11'0 0.0
2018-Feb-19 17:58N 34°41' E 135°11'0 0.0
2018-Feb-19 17:28N 34°41' E 135°11'0 0.0
2018-Feb-19 16:58N 34°41' E 135°11'0 0.0
2018-Feb-19 16:28N 34°41' E 135°11'0 0.0
2018-Feb-19 15:58N 34°41' E 135°11'0 0.0
2018-Feb-19 15:28N 34°41' E 135°11'0 0.0
2018-Feb-19 14:58N 34°41' E 135°11'0 0.0
2018-Feb-19 14:28N 34°41' E 135°11'0 0.0
2018-Feb-19 13:58N 34°41' E 135°11'0 0.0
2018-Feb-19 13:28N 34°41' E 135°11'0 0.0
2018-Feb-19 12:58N 34°41' E 135°11'0 0.0
2018-Feb-19 12:25N 34°41' E 135°11'1 3.3
2018-Feb-19 12:00N 34°39' E 135°11'613.0
2018-Feb-19 11:31N 34°35' E 135°06'611.7
2018-Feb-19 11:00N 34°38' E 134°59'713.3
2018-Feb-19 10:31N 34°37' E 135°07'510.5
2018-Feb-19 10:01N 34°41' E 135°11'0 0.0
2018-Feb-19 09:30N 34°41' E 135°11'1 1.9
2018-Feb-19 09:00N 34°40' E 135°12'4 8.7
2018-Feb-19 08:31N 34°38' E 135°07'5 9.6
2018-Feb-19 08:01N 34°41' E 135°11'0 0.0
2018-Feb-19 07:28N 34°41' E 135°11'0 0.0
2018-Feb-19 06:58N 34°41' E 135°11'0 0.0
2018-Feb-19 06:28N 34°41' E 135°11'0 0.0
2018-Feb-19 05:58N 34°41' E 135°11'0 0.0
2018-Feb-19 05:28N 34°41' E 135°11'0 0.0
2018-Feb-19 05:00N 34°41' E 135°11'3 5.1
2018-Feb-19 04:30N 34°38' E 135°10'3 5.8
2018-Feb-19 04:00N 34°37' E 135°07'4 8.1
2018-Feb-19 03:30N 34°38' E 135°12'3 6.6
2018-Feb-19 03:00N 34°41' E 135°11'0 0.0
2018-Feb-19 02:30N 34°41' E 135°11'0 0.0
2018-Feb-19 02:00N 34°41' E 135°11'0 0.0
2018-Feb-19 01:30N 34°41' E 135°11'0 0.0
2018-Feb-19 01:00N 34°41' E 135°11'0 0.0
2018-Feb-19 00:27N 34°41' E 135°11'0 0.0
2018-Feb-19 00:00N 34°41' E 135°11'0 0.0
2018-Feb-18 23:30N 34°41' E 135°11'0 0.0
2018-Feb-18 23:00N 34°41' E 135°11'0 0.0
2018-Feb-18 22:30N 34°41' E 135°11'0 0.0
2018-Feb-18 22:00N 34°41' E 135°11'0 0.0
2018-Feb-18 21:30N 34°41' E 135°11'0 0.0
2018-Feb-18 21:00N 34°41' E 135°11'0 0.0
2018-Feb-18 20:30N 34°41' E 135°11'0 0.0
2018-Feb-18 20:00N 34°41' E 135°11'0 0.0
2018-Feb-18 19:30N 34°41' E 135°11'0 0.0
2018-Feb-18 19:00N 34°41' E 135°11'0 0.0
2018-Feb-18 18:30N 34°41' E 135°11'0 0.0
2018-Feb-18 18:00N 34°41' E 135°11'0 0.0
2018-Feb-18 17:30N 34°41' E 135°11'0 0.0
2018-Feb-18 17:00N 34°41' E 135°11'0 0.0
2018-Feb-18 16:30N 34°41' E 135°11'0 0.0
2018-Feb-18 16:00N 34°41' E 135°11'0 0.0
2018-Feb-18 15:30N 34°41' E 135°11'0 0.0
2018-Feb-18 15:00N 34°41' E 135°11'0 0.0
2018-Feb-18 14:30N 34°41' E 135°11'0 0.0
2018-Feb-18 14:00N 34°41' E 135°11'0 0.0
2018-Feb-18 13:30N 34°41' E 135°11'0 0.0
2018-Feb-18 13:00N 34°41' E 135°11'0 0.0
2018-Feb-18 12:30N 34°41' E 135°11'2 4.0
2018-Feb-18 12:01N 34°39' E 135°11'612.4
2018-Feb-18 11:30N 34°35' E 135°05'611.8
2018-Feb-18 11:01N 34°37' E 134°59'714.7
2018-Feb-18 10:30N 34°37' E 135°08'5 9.2
2018-Feb-18 10:00N 34°41' E 135°11'0 0.0
2018-Feb-18 09:28N 34°41' E 135°11'0 0.0
2018-Feb-18 08:58N 34°41' E 135°11'2 4.6
2018-Feb-18 08:31N 34°39' E 135°11'3 5.9
2018-Feb-18 08:00N 34°37' E 135°08'3 6.6
2018-Feb-18 07:30N 34°37' E 135°12'3 6.9
2018-Feb-18 07:00N 34°41' E 135°11'0 0.0
2018-Feb-18 06:29N 34°41' E 135°11'0 0.0
2018-Feb-18 05:59N 34°41' E 135°11'0 0.0
2018-Feb-18 05:29N 34°41' E 135°11'0 0.0
2018-Feb-18 05:00N 34°41' E 135°11'3 5.2
2018-Feb-18 04:30N 34°38' E 135°11'4 8.4
2018-Feb-18 04:00N 34°36' E 135°06'510.9
2018-Feb-18 03:30N 34°37' E 135°13'4 7.3
2018-Feb-18 03:00N 34°41' E 135°11'0 0.0
2018-Feb-18 02:28N 34°41' E 135°11'0 0.0
2018-Feb-18 01:58N 34°41' E 135°11'0 0.0
2018-Feb-18 01:28N 34°41' E 135°11'0 0.0
2018-Feb-18 00:55N 34°41' E 135°11'0 0.0
2018-Feb-18 00:28N 34°41' E 135°11'0 0.0
2018-Feb-17 23:58N 34°41' E 135°11'0 0.0
2018-Feb-17 23:28N 34°41' E 135°11'0 0.0
2018-Feb-17 22:58N 34°41' E 135°11'0 0.0
2018-Feb-17 22:28N 34°41' E 135°11'0 0.0
2018-Feb-17 21:58N 34°41' E 135°11'0 0.0
2018-Feb-17 21:28N 34°41' E 135°11'0 0.0
2018-Feb-17 20:58N 34°41' E 135°11'0 0.0
2018-Feb-17 20:25N 34°41' E 135°11'0 0.0
2018-Feb-17 19:58N 34°41' E 135°11'0 0.0
2018-Feb-17 19:28N 34°41' E 135°11'0 0.0
2018-Feb-17 18:58N 34°41' E 135°11'0 0.0
2018-Feb-17 18:28N 34°41' E 135°11'0 0.0
2018-Feb-17 17:58N 34°41' E 135°11'0 0.0
2018-Feb-17 17:28N 34°41' E 135°11'0 0.0
2018-Feb-17 16:58N 34°41' E 135°11'0 0.0
2018-Feb-17 16:28N 34°41' E 135°11'0 0.0
2018-Feb-17 15:58N 34°41' E 135°11'0 0.0
2018-Feb-17 15:28N 34°41' E 135°11'0 0.0
2018-Feb-17 14:58N 34°41' E 135°11'0 0.0
2018-Feb-17 14:28N 34°41' E 135°11'0 0.0
2018-Feb-17 13:58N 34°41' E 135°11'0 0.0
2018-Feb-17 13:28N 34°41' E 135°11'0 0.0
2018-Feb-17 12:58N 34°41' E 135°11'0 0.0
2018-Feb-17 12:28N 34°41' E 135°11'2 3.7
2018-Feb-17 12:00N 34°39' E 135°11'611.4
2018-Feb-17 11:30N 34°35' E 135°06'612.6
2018-Feb-17 11:00N 34°37' E 134°59'713.1
2018-Feb-17 10:31N 34°37' E 135°07'510.8
2018-Feb-17 10:00N 34°41' E 135°11'0 0.0
2018-Feb-17 09:30N 34°41' E 135°11'0 0.0
2018-Feb-17 09:00N 34°41' E 135°11'2 4.0
2018-Feb-17 08:30N 34°39' E 135°11'3 5.6
2018-Feb-17 08:00N 34°37' E 135°09'3 6.9
2018-Feb-17 07:30N 34°37' E 135°13'4 6.8
2018-Feb-17 06:58N 34°41' E 135°11'0 0.0
2018-Feb-17 06:28N 34°41' E 135°11'0 0.0
2018-Feb-17 05:58N 34°41' E 135°11'0 0.0
2018-Feb-17 05:28N 34°41' E 135°11'0 0.0
2018-Feb-17 04:59N 34°41' E 135°11'3 5.7
2018-Feb-17 04:31N 34°38' E 135°11'5 9.1
2018-Feb-17 04:00N 34°37' E 135°06'612.5
2018-Feb-17 03:30N 34°37' E 135°13'4 8.5
2018-Feb-17 03:00N 34°41' E 135°11'0 0.0
2018-Feb-17 02:30N 34°41' E 135°11'0 0.0
2018-Feb-17 02:00N 34°41' E 135°11'0 0.0
2018-Feb-17 01:30N 34°41' E 135°11'0 0.0
2018-Feb-17 01:00N 34°41' E 135°11'0 0.0
2018-Feb-17 00:30N 34°41' E 135°11'0 0.0
2018-Feb-17 00:00N 34°41' E 135°11'0 0.0
2018-Feb-16 23:30N 34°41' E 135°11'0 0.0
2018-Feb-16 23:00N 34°41' E 135°11'0 0.0
2018-Feb-16 22:30N 34°41' E 135°11'0 0.0
2018-Feb-16 22:00N 34°41' E 135°11'0 0.0
2018-Feb-16 21:30N 34°41' E 135°11'0 0.0
2018-Feb-16 21:00N 34°41' E 135°11'0 0.0
2018-Feb-16 20:30N 34°41' E 135°11'0 0.0
2018-Feb-16 20:00N 34°41' E 135°11'0 0.0
2018-Feb-16 19:30N 34°41' E 135°11'0 0.0
2018-Feb-16 19:00N 34°41' E 135°11'0 0.0
2018-Feb-16 18:30N 34°41' E 135°11'0 0.0
2018-Feb-16 18:00N 34°41' E 135°11'0 0.0
2018-Feb-16 17:30N 34°41' E 135°11'0 0.0
2018-Feb-16 17:00N 34°41' E 135°11'0 0.0
2018-Feb-16 16:24N 34°41' E 135°11'0 0.0
2018-Feb-16 16:00N 34°41' E 135°11'0 0.0
2018-Feb-16 15:30N 34°41' E 135°11'0 0.0
2018-Feb-16 15:00N 34°41' E 135°11'0 0.0
2018-Feb-16 14:30N 34°41' E 135°11'0 0.0
2018-Feb-16 14:00N 34°41' E 135°11'0 0.0
2018-Feb-16 13:30N 34°41' E 135°11'0 0.0
2018-Feb-16 13:00N 34°41' E 135°11'0 0.0
2018-Feb-16 12:30N 34°41' E 135°11'1 2.5
2018-Feb-16 12:00N 34°40' E 135°11'611.6
2018-Feb-16 11:31N 34°36' E 135°06'612.0
2018-Feb-16 11:00N 34°37' E 134°59'612.5
2018-Feb-16 10:30N 34°37' E 135°07'611.0
2018-Feb-16 10:00N 34°41' E 135°11'0 0.0
2018-Feb-16 09:30N 34°41' E 135°11'1 2.1
2018-Feb-16 09:00N 34°40' E 135°12'4 8.8
2018-Feb-16 08:30N 34°37' E 135°07'5 9.8
2018-Feb-16 08:01N 34°41' E 135°11'0 0.0
2018-Feb-16 07:30N 34°41' E 135°11'0 0.0
2018-Feb-16 07:00N 34°41' E 135°11'0 0.0
2018-Feb-16 06:30N 34°41' E 135°11'0 0.0
2018-Feb-16 06:00N 34°41' E 135°11'0 0.0
2018-Feb-16 05:31N 34°41' E 135°11'0 0.0
2018-Feb-16 05:00N 34°41' E 135°11'3 5.2
2018-Feb-16 04:30N 34°38' E 135°11'4 7.6
2018-Feb-16 04:00N 34°37' E 135°06'5 9.9
2018-Feb-16 03:30N 34°37' E 135°12'3 6.9
2018-Feb-16 03:00N 34°41' E 135°11'0 0.0
2018-Feb-16 02:29N 34°41' E 135°11'0 0.0
2018-Feb-16 01:59N 34°41' E 135°11'0 0.0
2018-Feb-16 01:29N 34°41' E 135°11'0 0.0
2018-Feb-16 00:59N 34°41' E 135°11'0 0.0
2018-Feb-16 00:29N 34°41' E 135°11'0 0.0
2018-Feb-15 23:56N 34°41' E 135°11'0 0.0
2018-Feb-15 23:29N 34°41' E 135°11'0 0.0
2018-Feb-15 22:59N 34°41' E 135°11'0 0.0
2018-Feb-15 22:29N 34°41' E 135°11'0 0.0
2018-Feb-15 21:59N 34°41' E 135°11'0 0.0
2018-Feb-15 21:29N 34°41' E 135°11'0 0.0
2018-Feb-15 20:59N 34°41' E 135°11'0 0.0
2018-Feb-15 20:29N 34°41' E 135°11'0 0.0
2018-Feb-15 19:59N 34°41' E 135°11'0 0.0
2018-Feb-15 19:29N 34°41' E 135°11'0 0.0
2018-Feb-15 18:59N 34°41' E 135°11'0 0.0
2018-Feb-15 18:29N 34°41' E 135°11'0 0.0
2018-Feb-15 17:59N 34°41' E 135°11'0 0.0
2018-Feb-15 17:29N 34°41' E 135°11'0 0.0
2018-Feb-15 16:59N 34°41' E 135°11'0 0.0
2018-Feb-15 16:29N 34°41' E 135°11'0 0.0
2018-Feb-15 15:59N 34°41' E 135°11'0 0.0
2018-Feb-15 15:29N 34°41' E 135°11'0 0.0
2018-Feb-15 14:59N 34°41' E 135°11'0 0.0
2018-Feb-15 14:29N 34°41' E 135°11'0 0.0
2018-Feb-15 13:59N 34°41' E 135°11'0 0.0
2018-Feb-15 13:29N 34°41' E 135°11'0 0.0
2018-Feb-15 12:59N 34°41' E 135°11'0 0.0
2018-Feb-15 12:29N 34°41' E 135°11'1 2.6
2018-Feb-15 12:01N 34°40' E 135°11'612.6
2018-Feb-15 11:31N 34°35' E 135°06'612.6
2018-Feb-15 11:01N 34°37' E 134°59'713.0
2018-Feb-15 10:31N 34°37' E 135°07'611.0
2018-Feb-15 10:00N 34°41' E 135°11'0 0.0
2018-Feb-15 09:28N 34°41' E 135°11'1 2.4
2018-Feb-15 09:00N 34°40' E 135°12'4 8.6
2018-Feb-15 08:30N 34°37' E 135°07'5 9.7
2018-Feb-15 08:00N 34°41' E 135°11'0 0.0
2018-Feb-15 07:28N 34°41' E 135°11'0 0.0
2018-Feb-15 06:58N 34°41' E 135°11'0 0.0
2018-Feb-15 06:25N 34°41' E 135°11'0 0.0
2018-Feb-15 05:58N 34°41' E 135°11'0 0.0
2018-Feb-15 05:28N 34°41' E 135°11'0 0.0
2018-Feb-15 05:00N 34°41' E 135°11'3 5.3
2018-Feb-15 04:30N 34°38' E 135°10'4 7.1
2018-Feb-15 04:00N 34°37' E 135°06'5 9.5
2018-Feb-15 03:30N 34°38' E 135°12'3 6.7
2018-Feb-15 03:00N 34°41' E 135°11'0 0.0
2018-Feb-15 02:28N 34°41' E 135°11'0 0.0
2018-Feb-15 01:58N 34°41' E 135°11'0 0.0
2018-Feb-15 01:28N 34°41' E 135°11'0 0.0
2018-Feb-15 00:58N 34°41' E 135°11'0 0.0
2018-Feb-15 00:28N 34°41' E 135°11'0 0.0
2018-Feb-14 23:58N 34°41' E 135°11'0 0.0
2018-Feb-14 23:28N 34°41' E 135°11'0 0.0
2018-Feb-14 22:58N 34°41' E 135°11'0 0.0
2018-Feb-14 22:28N 34°41' E 135°11'0 0.0
2018-Feb-14 21:58N 34°41' E 135°11'0 0.0
2018-Feb-14 21:28N 34°41' E 135°11'0 0.0
2018-Feb-14 20:58N 34°41' E 135°11'0 0.0
2018-Feb-14 20:28N 34°41' E 135°11'0 0.0
2018-Feb-14 19:58N 34°41' E 135°11'0 0.0
2018-Feb-14 19:28N 34°41' E 135°11'0 0.0
2018-Feb-14 18:58N 34°41' E 135°11'0 0.0
2018-Feb-14 18:28N 34°41' E 135°11'0 0.0
2018-Feb-14 17:58N 34°41' E 135°11'0 0.0
2018-Feb-14 17:28N 34°41' E 135°11'0 0.0
2018-Feb-14 16:58N 34°41' E 135°11'0 0.0
2018-Feb-14 16:28N 34°41' E 135°11'0 0.0
2018-Feb-14 15:58N 34°41' E 135°11'0 0.0
2018-Feb-14 15:28N 34°41' E 135°11'0 0.0
2018-Feb-14 14:58N 34°41' E 135°11'0 0.0
2018-Feb-14 14:28N 34°41' E 135°11'0 0.0
2018-Feb-14 13:58N 34°41' E 135°11'0 0.0
2018-Feb-14 13:28N 34°41' E 135°11'0 0.0
2018-Feb-14 12:58N 34°41' E 135°11'0 0.0
2018-Feb-14 12:28N 34°41' E 135°11'1 2.6
2018-Feb-14 12:00N 34°40' E 135°11'713.1
2018-Feb-14 11:30N 34°35' E 135°06'612.7
2018-Feb-14 11:00N 34°37' E 134°59'713.2
2018-Feb-14 10:30N 34°37' E 135°07'510.4
2018-Feb-14 09:59N 34°41' E 135°11'0 0.0
2018-Feb-14 09:28N 34°41' E 135°11'1 2.3
2018-Feb-14 09:00N 34°40' E 135°12'4 8.7
2018-Feb-14 08:31N 34°37' E 135°07'5 9.7
2018-Feb-14 08:01N 34°41' E 135°11'0 0.0
2018-Feb-14 07:29N 34°41' E 135°11'0 0.0
2018-Feb-14 06:59N 34°41' E 135°11'0 0.0
2018-Feb-14 06:29N 34°41' E 135°11'  

Dump ship's entire track history